createdAt,value
2019-04-11T00:03:25.013Z,10.82
2019-04-11T00:08:28.329Z,10.03
2019-04-11T00:13:33.377Z,10.18
2019-04-11T00:18:36.701Z,10.15
2019-04-11T00:23:40.571Z,9.48
2019-04-11T00:28:43.850Z,10.58
2019-04-11T00:33:46.992Z,9.43
2019-04-11T00:38:50.585Z,9.40
2019-04-11T00:43:54.653Z,8.73
2019-04-11T00:48:57.982Z,9.55
2019-04-11T00:54:01.127Z,8.53
2019-04-11T00:59:04.198Z,7.80
2019-04-11T01:04:07.655Z,9.00
2019-04-11T01:09:12.430Z,9.50
2019-04-11T01:14:15.677Z,7.72
2019-04-11T01:19:18.811Z,8.78
2019-04-11T01:24:22.204Z,7.72
2019-04-11T01:29:25.424Z,7.58
2019-04-11T01:34:28.869Z,10.03
2019-04-11T01:40:03.653Z,9.10
2019-04-11T01:45:09.415Z,9.78
2019-04-11T01:50:16.828Z,10.00
2019-04-11T01:55:20.662Z,9.78
2019-04-11T02:00:42.517Z,8.83
2019-04-11T02:05:45.708Z,9.60
2019-04-11T02:10:48.874Z,10.25
2019-04-11T02:15:54.214Z,8.93
2019-04-11T02:20:57.637Z,8.18
2019-04-11T02:26:07.157Z,8.55
2019-04-11T02:31:12.261Z,10.18
2019-04-11T02:36:16.697Z,8.98
2019-04-11T02:41:21.091Z,9.20
2019-04-11T02:46:36.957Z,8.95
2019-04-11T02:51:31.016Z,8.30
2019-04-11T02:56:35.690Z,7.22
2019-04-11T03:01:39.874Z,8.73
2019-04-11T03:06:43.867Z,8.08
2019-04-11T03:11:49.290Z,7.57
2019-04-11T03:17:03.893Z,7.50
2019-04-11T03:21:59.354Z,8.50
2019-04-11T03:27:05.709Z,7.83
2019-04-11T03:32:48.902Z,7.30
2019-04-11T03:37:38.044Z,7.90
2019-04-11T03:42:38.194Z,8.37
2019-04-11T03:47:37.341Z,8.30
2019-04-11T03:52:30.604Z,8.00
2019-04-11T03:57:34.429Z,8.05
2019-04-11T04:02:38.975Z,8.50
2019-04-11T04:07:44.138Z,8.45
2019-04-11T04:12:48.123Z,8.78
2019-04-11T04:18:01.303Z,9.20
2019-04-11T04:23:23.042Z,9.53
2019-04-11T04:28:27.239Z,9.55
2019-04-11T04:33:30.784Z,8.70
2019-04-11T04:38:37.719Z,6.42
2019-04-11T04:43:43.587Z,9.15
2019-04-11T04:48:47.866Z,10.78
2019-04-11T04:53:52.139Z,9.45
2019-04-11T04:58:55.992Z,9.75
2019-04-11T05:03:59.226Z,9.60
2019-04-11T05:09:02.537Z,8.35
2019-04-11T05:14:07.066Z,9.45
2019-04-11T05:19:10.429Z,7.70
2019-04-11T05:24:14.500Z,8.40
2019-04-11T05:29:17.725Z,9.10
2019-04-11T05:34:20.684Z,7.90
2019-04-11T05:39:23.731Z,10.00
2019-04-11T05:44:26.714Z,10.43
2019-04-11T05:49:42.032Z,8.75
2019-04-11T05:54:49.801Z,10.00
2019-04-11T05:59:55.123Z,10.45
2019-04-11T06:05:05.391Z,8.33
2019-04-11T06:10:14.668Z,10.23
2019-04-11T06:15:29.263Z,9.68
2019-04-11T06:20:47.554Z,10.90
2019-04-11T06:25:57.593Z,11.00
2019-04-11T06:31:24.836Z,11.40
2019-04-11T06:36:48.249Z,12.98
2019-04-11T06:41:59.077Z,11.68
2019-04-11T06:47:30.657Z,11.70
2019-04-11T06:52:34.958Z,10.55
2019-04-11T06:57:38.322Z,12.00
2019-04-11T07:02:44.537Z,11.00
2019-04-11T07:07:49.978Z,11.47
2019-04-11T07:13:00.833Z,10.18
2019-04-11T07:18:31.109Z,10.53
2019-04-11T07:23:53.414Z,10.72
2019-04-11T07:29:17.276Z,10.48
2019-04-11T07:34:43.633Z,12.03
2019-04-11T07:40:26.640Z,12.37
2019-04-11T07:45:49.056Z,11.22
2019-04-11T07:50:54.989Z,12.78
2019-04-11T07:55:57.542Z,10.53
2019-04-11T08:01:29.427Z,10.90
2019-04-11T08:06:52.155Z,12.43
2019-04-11T08:12:04.541Z,13.87
2019-04-11T08:17:25.872Z,12.40
2019-04-11T08:22:50.075Z,13.45
2019-04-11T08:28:13.980Z,16.82
2019-04-11T08:33:18.311Z,15.03
2019-04-11T08:38:29.420Z,12.90
2019-04-11T08:43:33.053Z,13.45
2019-04-11T08:48:41.179Z,10.75
2019-04-11T08:54:19.536Z,12.65
2019-04-11T08:59:45.998Z,11.28
2019-04-11T09:05:14.683Z,10.45
2019-04-11T09:10:15.712Z,12.65
2019-04-11T09:15:37.511Z,11.40
2019-04-11T09:21:12.453Z,12.23
2019-04-11T09:26:42.466Z,12.95
2019-04-11T09:32:18.154Z,14.30
2019-04-11T09:37:46.630Z,10.75
2019-04-11T09:43:22.199Z,14.03
2019-04-11T09:48:44.403Z,12.03
2019-04-11T09:53:52.919Z,15.38
2019-04-11T09:58:58.262Z,11.65
2019-04-11T10:04:01.580Z,14.70
2019-04-11T10:09:08.091Z,14.20
2019-04-11T10:14:13.674Z,13.85
2019-04-11T10:19:38.115Z,10.97
2019-04-11T10:25:19.364Z,12.82
2019-04-11T10:30:48.260Z,11.28
2019-04-11T10:36:10.433Z,13.43
2019-04-11T10:41:32.657Z,13.83
2019-04-11T10:46:49.549Z,12.68
2019-04-11T10:51:58.747Z,10.82
2019-04-11T10:57:24.339Z,11.63
2019-04-11T11:02:53.638Z,9.53
2019-04-11T11:08:02.332Z,9.13
2019-04-11T11:13:25.676Z,9.98
2019-04-11T11:19:24.599Z,10.10
2019-04-11T11:24:33.838Z,9.88
2019-04-11T11:29:56.504Z,10.80
2019-04-11T11:35:25.265Z,10.58
2019-04-11T11:40:50.059Z,9.70
2019-04-11T11:46:25.712Z,9.90
2019-04-11T11:51:45.741Z,8.48
2019-04-11T11:56:49.078Z,10.35
2019-04-11T12:02:04.445Z,9.00
2019-04-11T12:07:09.406Z,8.55
2019-04-11T12:12:17.682Z,8.23
2019-04-11T12:17:47.039Z,8.78
2019-04-11T12:22:52.071Z,10.82
2019-04-11T12:28:14.701Z,13.22
2019-04-11T12:33:35.398Z,15.35
2019-04-11T12:38:56.062Z,10.65
2019-04-11T12:44:26.705Z,9.93
2019-04-11T12:49:52.989Z,12.40
2019-04-11T12:54:54.523Z,7.78
2019-04-11T13:00:05.996Z,10.38
2019-04-11T13:05:10.747Z,10.35
2019-04-11T13:10:32.125Z,10.58
2019-04-11T13:15:40.732Z,10.72
2019-04-11T13:21:03.694Z,8.80
2019-04-11T13:26:41.231Z,9.18
2019-04-11T13:32:02.547Z,7.40
2019-04-11T13:37:23.878Z,6.87
2019-04-11T13:42:44.982Z,8.35
2019-04-11T13:48:16.811Z,7.53
2019-04-11T13:53:37.849Z,7.30
2019-04-11T13:59:12.454Z,10.48
2019-04-11T14:04:21.318Z,7.08
2019-04-11T14:09:31.410Z,7.10
2019-04-11T14:14:36.552Z,6.70
2019-04-11T14:19:53.873Z,7.03
2019-04-11T14:25:15.072Z,7.60
2019-04-11T14:30:43.921Z,7.28
2019-04-11T14:36:32.615Z,6.87
2019-04-11T14:41:46.222Z,6.97
2019-04-11T14:47:11.927Z,8.43
2019-04-11T14:52:36.605Z,6.83
2019-04-11T14:58:02.161Z,7.03
2019-04-11T15:03:14.687Z,8.20
2019-04-11T15:08:30.806Z,6.97
2019-04-11T15:13:33.956Z,8.45
2019-04-11T15:18:42.072Z,8.95
2019-04-11T15:23:47.717Z,9.65
2019-04-11T15:29:22.110Z,8.27
2019-04-11T15:34:34.763Z,8.05
2019-04-11T15:39:56.170Z,8.78
2019-04-11T15:45:14.770Z,10.63
2019-04-11T15:50:35.993Z,9.75
2019-04-11T15:55:47.439Z,9.78
2019-04-11T16:00:58.397Z,10.32
2019-04-11T16:06:19.647Z,9.88
2019-04-11T16:11:42.188Z,9.88
2019-04-11T16:17:13.948Z,10.23
2019-04-11T16:22:34.868Z,10.10
2019-04-11T16:28:07.148Z,10.75
2019-04-11T16:33:23.419Z,12.50
2019-04-11T16:38:27.358Z,10.88
2019-04-11T16:43:32.086Z,11.22
2019-04-11T16:48:35.292Z,13.30
2019-04-11T16:53:38.318Z,12.35
2019-04-11T16:58:43.024Z,10.93
2019-04-11T17:03:45.998Z,10.10
2019-04-11T17:08:56.395Z,10.23
2019-04-11T17:13:58.998Z,10.30
2019-04-11T17:19:04.957Z,9.13
2019-04-11T17:24:06.919Z,9.83
2019-04-11T17:29:09.891Z,9.95
2019-04-11T17:34:12.902Z,12.70
2019-04-11T17:39:15.918Z,13.30
2019-04-11T17:44:18.904Z,13.38
2019-04-11T17:49:22.005Z,13.90
2019-04-11T17:54:25.587Z,12.63
2019-04-11T17:59:29.139Z,14.18
2019-04-11T18:04:32.273Z,14.43
2019-04-11T18:09:35.349Z,14.13
2019-04-11T18:14:38.344Z,15.50
2019-04-11T18:19:41.475Z,13.43
2019-04-11T18:24:44.623Z,14.15
2019-04-11T18:29:47.783Z,13.78
2019-04-11T18:34:50.738Z,16.45
2019-04-11T18:39:53.754Z,15.35
2019-04-11T18:44:56.725Z,15.55
2019-04-11T18:49:59.826Z,15.23
2019-04-11T18:55:04.460Z,14.15
2019-04-11T19:00:12.979Z,15.88
2019-04-11T19:05:27.873Z,16.20
2019-04-11T19:10:22.035Z,17.07
2019-04-11T19:15:25.062Z,16.23
2019-04-11T19:20:28.155Z,17.60
2019-04-11T19:25:31.697Z,17.00
2019-04-11T19:30:34.912Z,17.62
2019-04-11T19:35:41.345Z,18.87
2019-04-11T19:40:44.175Z,17.35
2019-04-11T19:45:50.070Z,17.53
2019-04-11T19:50:53.203Z,18.73
2019-04-11T19:56:22.081Z,17.10
2019-04-11T20:01:25.131Z,15.23
2019-04-11T20:06:28.171Z,15.67
2019-04-11T20:11:31.157Z,15.18
2019-04-11T20:16:41.837Z,16.40
2019-04-11T20:21:39.093Z,15.00
2019-04-11T20:26:42.158Z,14.55
2019-04-11T20:31:45.553Z,14.87
2019-04-11T20:36:48.751Z,13.13
2019-04-11T20:41:53.615Z,15.17
2019-04-11T20:47:00.131Z,16.82
2019-04-11T20:52:01.910Z,14.70
2019-04-11T20:57:05.009Z,15.50
2019-04-11T21:02:08.216Z,17.20
2019-04-11T21:07:12.040Z,17.15
2019-04-11T21:12:17.084Z,21.07
2019-04-11T21:17:21.218Z,17.48
2019-04-11T21:22:24.871Z,19.78
2019-04-11T21:27:29.020Z,21.06
2019-04-11T21:32:32.996Z,17.80
2019-04-11T21:37:36.771Z,18.65
2019-04-11T21:42:40.465Z,19.07
2019-04-11T21:47:43.573Z,19.43
2019-04-11T21:52:46.749Z,19.15
2019-04-11T21:57:49.965Z,19.85
2019-04-11T22:02:54.346Z,19.10
2019-04-11T22:07:58.100Z,18.02
2019-04-11T22:13:01.480Z,18.43
2019-04-11T22:18:04.877Z,17.82
2019-04-11T22:23:08.007Z,16.27
2019-04-11T22:28:11.122Z,16.60
2019-04-11T22:33:32.946Z,15.28
2019-04-11T22:38:36.204Z,13.75
2019-04-11T22:43:39.443Z,13.35
2019-04-11T22:48:42.620Z,12.00
2019-04-11T22:53:45.803Z,12.07
2019-04-11T22:58:49.028Z,12.23
2019-04-11T23:04:01.539Z,12.18
2019-04-11T23:09:06.759Z,12.78
2019-04-11T23:14:09.887Z,12.60
2019-04-11T23:19:14.362Z,12.18
2019-04-11T23:24:17.727Z,12.07
2019-04-11T23:29:21.147Z,12.70
2019-04-11T23:34:24.263Z,13.28
2019-04-11T23:39:27.447Z,13.68
2019-04-11T23:44:30.592Z,12.28
2019-04-11T23:49:33.790Z,13.62
2019-04-11T23:54:36.841Z,12.50
2019-04-11T23:59:39.988Z,13.55
